KANW/ANW METAR and TAF weather

Enter ICAO airport designator
Station Type Date Time Source
KANW METAR 2019/02/23 17:55 UTC NOAA

KANW 231755Z AUTO 33010KT 5SM BR OVC006 M07/M07 A2987 RMK AO2 T10671072 11067 21088


Station Type Date Time Source
KANW Decoded METAR 2019/02/23 17:55 UTC NOAA

Ainsworth Municipal, NE, United States (KANW) 42-35N 100-00W
Feb 23, 2019 - 12:55 PM EST / 2019.02.23 1755 UTC
Wind: from the NNW (330 degrees) at 12 MPH (10 KT):0
Visibility: 5 mile(s):0
Sky conditions: overcast
Weather: mist
Temperature: 19.9 F (-6.7 C)
Windchill: 6 F (-14 C):1
Dew Point: 19.0 F (-7.2 C)
Relative Humidity: 96%
Pressure (altimeter): 29.87 in. Hg (1011 hPa)
ob: KANW 231755Z AUTO 33010KT 5SM BR OVC006 M07/M07 A2987 RMK AO2 T10671072 11067 21088
cycle: 18

Station Type Date Time Source
KANW TAF UTC NOAA

Error!


Example: see airport list